Terminal Aerodrome Forecast
Issued by NWS Amarillo, TX

Home | Current Version | Previous Version | Text Only | Print | Product List | Glossary On
Versions: 1 2 3 4 5 6 7 8 9 10 11
000
FTUS44 KAMA 290500
TAFDHT
TAF
KDHT 290520Z 2906/3006 31006KT P6SM SCT250
     FM291900 02012KT P6SM BKN100
     FM300200 04012G18KT P6SM OVC010=

USA.gov is the U.S. government's official web portal to all federal, state and local government web resources and services.